Trowbridge, United Kingdom
Current Conditions -  °F | °C
As of 2:20 AM on Sunday 21 Dec 2014 (Local Time) from EGGD Reporting Station
Broken Clouds Broken Clouds  
Wind Chill: 37°   Ceiling: 200
Heat Index: 43°   Visibility: 6mi
Dew Point: 41°   Wind: 10mph
Humidity: 93%   Direction: 240°WSW
Pressure: 30.42"   Gusts: NA
Location:  51.32°N, 2.21°W
Report Text: EGGD 210220Z 24009KT 9999 BKN002 06/05 Q1030
Loading
Personal Weather Stations






























Interactive Weather Map New forecast layout! Learn more

10-Day Weather Forecast

Advertisements
Track Severe Weather on mobile